Time;durP1;ratioP1;P1;durP2;ratioP2;P2;SDS_P1;SDS_P2;PMS_P1;PMS_P2;Temp;Humidity;BMP_temperature;BMP_pressure;BME280_temperature;BME280_humidity;BME280_pressure;Samples;Min_cycle;Max_cycle;Signal;HPM_P1;HPM_P2
2023/10/14 00:02:10;;;;;;;5.30;4.32;;;;;;;15.79;100.00;96099.81;6308123;22;20003;-77
2023/10/14 00:04:35;;;;;;;6.72;4.65;;;;;;;15.75;100.00;96105.44;6308787;22;20569;-77
2023/10/14 00:07:17;;;;;;;8.65;4.85;;;;;;;15.79;100.00;96113.06;6310213;22;20003;-77
2023/10/14 00:09:43;;;;;;;7.75;4.57;;;;;;;15.85;100.00;96107.94;6310195;22;20003;-77
2023/10/14 00:12:16;;;;;;;8.05;5.07;;;;;;;15.84;100.00;96119.56;6310251;22;20445;-77
2023/10/14 00:14:45;;;;;;;8.57;4.35;;;;;;;15.93;100.00;96104.50;6309863;22;20078;-77
2023/10/14 00:17:18;;;;;;;5.20;4.50;;;;;;;15.91;100.00;96109.16;6309384;22;20416;-76
2023/10/14 00:19:54;;;;;;;6.07;4.90;;;;;;;16.12;100.00;96105.16;6309789;22;20021;-77
2023/10/14 00:22:19;;;;;;;7.95;4.43;;;;;;;16.12;100.00;96108.63;6283342;22;20338;-77
2023/10/14 00:24:48;;;;;;;6.25;4.50;;;;;;;16.01;100.00;96107.16;6308545;22;20003;-77
2023/10/14 00:27:14;;;;;;;9.07;4.88;;;;;;;15.98;100.00;96098.72;6307910;22;19996;-77
2023/10/14 00:29:41;;;;;;;5.00;4.53;;;;;;;15.95;100.00;96094.53;6309906;22;20393;-77
2023/10/14 00:32:07;;;;;;;10.27;5.32;;;;;;;15.93;100.00;96093.88;6307887;22;19999;-77
2023/10/14 00:34:33;;;;;;;7.72;5.35;;;;;;;15.90;100.00;96094.22;6309966;22;20030;-77
2023/10/14 00:36:58;;;;;;;9.50;5.28;;;;;;;15.88;100.00;96107.66;6282727;22;20461;-77
2023/10/14 00:39:26;;;;;;;6.10;4.70;;;;;;;15.86;100.00;96104.28;6310107;22;20013;-77
2023/10/14 00:41:52;;;;;;;4.82;4.18;;;;;;;15.92;100.00;96091.41;6309992;22;20031;-77
2023/10/14 00:44:20;;;;;;;6.60;4.68;;;;;;;15.89;100.00;96095.22;6309798;22;20028;-77
2023/10/14 00:46:49;;;;;;;5.65;4.97;;;;;;;15.86;100.00;96093.69;6309587;22;19999;-77
2023/10/14 00:49:22;;;;;;;6.70;4.68;;;;;;;15.84;100.00;96095.66;6309386;22;20440;-77
2023/10/14 00:51:51;;;;;;;7.38;4.82;;;;;;;15.84;100.00;96105.47;6309281;22;19995;-77
2023/10/14 00:55:24;;;;;;;6.93;4.63;;;;;;;15.82;100.00;96104.81;6309920;22;19999;-77
2023/10/14 00:59:47;;;;;;;6.05;4.80;;;;;;;15.90;100.00;96099.53;6309467;22;20307;-77
2023/10/14 01:02:13;;;;;;;6.03;4.75;;;;;;;15.85;100.00;96110.59;6308540;22;20056;-77
2023/10/14 01:04:41;;;;;;;5.18;4.68;;;;;;;15.78;100.00;96096.34;6309778;22;20148;-77
2023/10/14 01:07:13;;;;;;;9.40;5.35;;;;;;;15.75;100.00;96108.09;6307717;22;20357;-77
2023/10/14 01:12:19;;;;;;;5.72;5.10;;;;;;;15.79;100.00;96105.97;6309969;22;20033;-76
2023/10/14 01:14:52;;;;;;;5.90;5.05;;;;;;;15.71;100.00;96104.13;6309758;22;19999;-77
2023/10/14 01:17:30;;;;;;;5.68;4.72;;;;;;;15.71;100.00;96101.47;6309949;22;20087;-76
2023/10/14 01:22:40;;;;;;;9.73;5.13;;;;;;;15.80;100.00;96094.34;6310169;22;20003;-76
2023/10/14 01:25:15;;;;;;;7.32;4.38;;;;;;;15.79;100.00;96099.81;6309727;22;20274;-76
2023/10/14 01:27:44;;;;;;;8.07;4.68;;;;;;;15.75;100.00;96088.72;6282559;22;20060;-76
2023/10/14 01:30:20;;;;;;;12.48;4.90;;;;;;;15.61;100.00;96111.41;6309471;22;20015;-76
2023/10/14 01:35:31;;;;;;;13.70;4.60;;;;;;;15.51;100.00;96106.25;6310272;22;19999;-77
2023/10/14 01:38:01;;;;;;;6.60;4.78;;;;;;;15.50;100.00;96109.06;6310231;22;20410;-77
2023/10/14 01:40:29;;;;;;;5.63;4.80;;;;;;;15.44;100.00;96108.72;6283539;22;20321;-77
2023/10/14 01:42:58;;;;;;;7.40;5.18;;;;;;;15.43;100.00;96095.59;6310494;22;20070;-76
2023/10/14 01:45:31;;;;;;;9.60;4.75;;;;;;;15.41;100.00;96100.25;6310821;22;20018;-77
2023/10/14 01:50:57;;;;;;;7.32;5.20;;;;;;;15.41;100.00;96098.44;6294400;22;20006;-77
2023/10/14 01:53:25;;;;;;;6.45;4.18;;;;;;;15.46;100.00;96092.63;6309281;22;19995;-76
2023/10/14 01:55:53;;;;;;;7.20;5.30;;;;;;;15.50;100.00;96088.69;6308817;22;20048;-77
2023/10/14 01:58:29;;;;;;;5.07;4.57;;;;;;;15.51;100.00;96094.81;6309618;22;19995;-76
2023/10/14 02:01:07;;;;;;;7.40;5.38;;;;;;;15.50;100.00;96091.34;6309379;22;20058;-77
2023/10/14 02:03:34;;;;;;;6.85;4.85;;;;;;;15.48;100.00;96082.72;6309948;22;20066;-77
2023/10/14 02:06:11;;;;;;;6.20;5.60;;;;;;;15.50;100.00;96077.22;6309193;22;20003;-77
2023/10/14 02:08:38;;;;;;;8.65;4.93;;;;;;;15.45;100.00;96073.25;6311473;22;19999;-76
2023/10/14 02:11:04;;;;;;;5.40;4.88;;;;;;;15.45;100.00;96075.03;6311701;22;20056;-77
2023/10/14 02:13:29;;;;;;;9.35;4.90;;;;;;;15.43;100.00;96083.19;6313085;22;20025;-77
2023/10/14 02:15:59;;;;;;;6.60;5.13;;;;;;;15.43;100.00;96088.50;6311182;22;20356;-76
2023/10/14 02:18:25;;;;;;;7.07;4.80;;;;;;;15.44;100.00;96078.69;6312031;22;20045;-76
2023/10/14 02:21:04;;;;;;;5.57;5.03;;;;;;;15.46;100.00;96074.06;6284590;22;20056;-77
2023/10/14 02:23:43;;;;;;;7.97;6.32;;;;;;;15.39;100.00;96075.72;6312312;22;20014;-77
2023/10/14 02:26:12;;;;;;;12.15;7.85;;;;;;;15.33;100.00;96071.88;6311141;22;20014;-77
2023/10/14 02:28:41;;;;;;;6.35;5.28;;;;;;;15.31;100.00;96080.00;6311760;22;20007;-77
2023/10/14 02:31:16;;;;;;;6.60;5.50;;;;;;;15.31;100.00;96069.41;6285059;22;19999;-77
2023/10/14 02:33:45;;;;;;;6.85;5.10;;;;;;;15.32;100.00;96070.22;6312102;22;20009;-77
2023/10/14 02:36:15;;;;;;;5.47;4.97;;;;;;;15.31;100.00;96069.41;6308815;22;20017;-77
2023/10/14 02:38:46;;;;;;;6.38;4.88;;;;;;;15.30;100.00;96064.25;6310954;22;20218;-77
2023/10/14 02:41:16;;;;;;;7.15;4.97;;;;;;;15.28;100.00;96068.88;6310325;22;20046;-76
2023/10/14 02:43:43;;;;;;;6.55;5.45;;;;;;;15.29;100.00;96070.53;6283638;22;19999;-76
2023/10/14 02:46:11;;;;;;;5.78;5.13;;;;;;;15.27;100.00;96065.41;6311325;22;20011;-76
2023/10/14 02:48:54;;;;;;;9.20;5.28;;;;;;;15.27;100.00;96064.56;6311498;22;20310;-76
2023/10/14 02:54:04;;;;;;;7.90;5.38;;;;;;;15.23;100.00;96061.41;6311211;22;20014;-76
2023/10/14 02:56:43;;;;;;;5.47;4.88;;;;;;;15.23;100.00;96069.38;6311573;22;20384;-77
2023/10/14 02:59:14;;;;;;;6.35;5.00;;;;;;;15.20;100.00;96068.88;6310799;22;20065;-76
2023/10/14 03:01:40;;;;;;;9.63;5.88;;;;;;;15.13;100.00;96066.84;6310758;22;20061;-76
2023/10/14 03:04:07;;;;;;;7.57;5.75;;;;;;;15.12;100.00;96073.16;6310876;22;20432;-77
2023/10/14 03:06:46;;;;;;;6.57;5.60;;;;;;;15.09;100.00;96070.81;6310895;22;19999;-77
2023/10/14 03:09:18;;;;;;;9.95;5.32;;;;;;;15.05;100.00;96066.84;6311130;22;20305;-76
2023/10/14 03:11:49;;;;;;;8.73;5.60;;;;;;;15.08;100.00;96074.47;6285678;22;20049;-76
2023/10/14 03:14:16;;;;;;;8.73;5.65;;;;;;;15.08;100.00;96071.00;6310345;22;20017;-76
2023/10/14 03:16:44;;;;;;;5.95;5.38;;;;;;;15.06;100.00;96079.09;6309849;22;20421;-76
2023/10/14 03:19:10;;;;;;;5.60;5.10;;;;;;;15.07;100.00;96078.09;6311266;22;20002;-76
2023/10/14 03:21:35;;;;;;;5.10;4.72;;;;;;;15.05;100.00;96072.13;6311060;22;20003;-76
2023/10/14 03:24:00;;;;;;;6.25;5.47;;;;;;;15.04;100.00;96075.78;6311592;22;20027;-76
2023/10/14 03:26:32;;;;;;;6.75;5.10;;;;;;;15.04;100.00;96073.13;6284603;22;19999;-76
2023/10/14 03:28:58;;;;;;;6.88;4.85;;;;;;;15.07;100.00;96072.81;6283080;22;19999;-76
2023/10/14 03:31:24;;;;;;;8.73;5.57;;;;;;;15.07;100.00;96067.50;6309444;22;20349;-76
2023/10/14 03:33:57;;;;;;;8.10;5.50;;;;;;;15.07;100.00;96091.38;6310923;22;20011;-76
2023/10/14 03:36:28;;;;;;;6.47;5.20;;;;;;;15.04;100.00;96083.75;6309736;22;20003;-76
2023/10/14 03:39:16;;;;;;;6.20;5.05;;;;;;;15.08;100.00;96081.59;6311026;22;20002;-76
2023/10/14 03:41:42;;;;;;;5.72;5.22;;;;;;;15.08;100.00;96074.47;6311270;22;20010;-76
2023/10/14 03:44:13;;;;;;;8.55;5.78;;;;;;;15.03;100.00;96082.06;6309390;22;20074;-77
2023/10/14 03:46:42;;;;;;;5.90;5.20;;;;;;;15.00;100.00;96080.56;6282959;22;20056;-76
2023/10/14 03:49:23;;;;;;;6.40;5.80;;;;;;;15.00;100.00;96082.41;6309587;22;20049;-76
2023/10/14 03:51:56;;;;;;;5.50;4.93;;;;;;;14.94;100.00;96083.03;6310228;22;20067;-77
2023/10/14 03:54:30;;;;;;;7.38;5.28;;;;;;;14.83;100.00;96087.63;6311144;22;20420;-77
2023/10/14 03:56:57;;;;;;;6.13;5.23;;;;;;;14.77;100.00;96103.31;6310555;22;19995;-77
2023/10/14 03:59:26;;;;;;;7.68;5.43;;;;;;;14.70;100.00;96103.09;6311007;22;20027;-77
2023/10/14 04:01:59;;;;;;;6.53;5.80;;;;;;;14.68;100.00;96105.91;6310888;22;20064;-77
2023/10/14 04:04:24;;;;;;;6.40;5.32;;;;;;;14.69;100.00;96104.09;6311207;22;20478;-77
2023/10/14 04:09:24;;;;;;;6.13;5.53;;;;;;;14.71;100.00;96110.94;6310989;22;20094;-77
2023/10/14 04:11:57;;;;;;;6.88;5.35;;;;;;;14.72;100.00;96114.41;6310824;22;20412;-77
2023/10/14 04:14:27;;;;;;;8.52;5.70;;;;;;;14.68;100.00;96110.38;6310461;22;20007;-77
2023/10/14 04:17:09;;;;;;;6.30;5.70;;;;;;;14.63;100.00;96108.22;6308734;22;20003;-77
2023/10/14 04:19:44;;;;;;;7.85;5.32;;;;;;;14.60;100.00;96103.22;6311083;22;20003;-77
2023/10/14 04:24:53;;;;;;;6.07;5.13;;;;;;;14.64;100.00;96101.06;6310757;22;20003;-77
2023/10/14 04:35:24;;;;;;;8.88;5.32;;;;;;;14.70;100.00;96076.59;6310475;22;20078;-77
2023/10/14 04:37:50;;;;;;;8.32;5.90;;;;;;;14.72;100.00;96075.50;6310419;22;19999;-77
2023/10/14 04:45:52;;;;;;;;;;;;;;;14.62;100.00;96080.06;6313377;22;20029;-77
2023/10/14 04:48:28;;;;;;;7.22;5.30;;;;;;;14.58;100.00;96076.03;6284928;22;19906;-77
2023/10/14 04:50:56;;;;;;;9.25;6.07;;;;;;;14.63;100.00;96063.16;6310949;22;20325;-77
2023/10/14 04:53:26;;;;;;;14.82;6.18;;;;;;;14.54;100.00;96074.69;6311775;22;20014;-77
2023/10/14 04:55:52;;;;;;;6.82;5.43;;;;;;;14.51;100.00;96072.38;6313150;22;20007;-77
2023/10/14 04:58:24;;;;;;;6.60;5.75;;;;;;;14.53;100.00;96078.34;6312235;22;20031;-77
2023/10/14 05:00:52;;;;;;;6.57;5.55;;;;;;;14.52;100.00;96082.81;6311579;22;20003;-77
2023/10/14 05:03:19;;;;;;;7.20;5.70;;;;;;;14.53;100.00;96083.63;6283919;22;20019;-77
2023/10/14 05:05:48;;;;;;;8.73;6.28;;;;;;;14.49;100.00;96085.78;6310616;22;20006;-77
2023/10/14 05:08:21;;;;;;;6.18;5.57;;;;;;;14.49;100.00;96095.53;6311700;22;20000;-77
2023/10/14 05:10:50;;;;;;;10.93;6.00;;;;;;;14.48;100.00;96092.06;6283315;22;20018;-78
2023/10/14 05:13:19;;;;;;;7.18;5.72;;;;;;;14.50;100.00;96086.59;6310174;22;19999;-77
2023/10/14 05:15:52;;;;;;;7.00;5.75;;;;;;;14.49;100.00;96101.69;6309395;22;20058;-77
2023/10/14 05:18:27;;;;;;;6.57;5.90;;;;;;;14.48;100.00;96094.72;6310129;22;20469;-77
2023/10/14 05:20:56;;;;;;;10.00;6.53;;;;;;;14.58;100.00;96095.44;6309967;22;20068;-78
2023/10/14 05:23:30;;;;;;;11.95;6.25;;;;;;;14.53;100.00;96102.19;6310051;22;20005;-78
2023/10/14 05:25:59;;;;;;;6.37;5.80;;;;;;;14.50;100.00;96095.38;6310149;22;20006;-77
2023/10/14 05:28:31;;;;;;;6.82;5.93;;;;;;;14.51;100.00;96099.69;6309666;22;20086;-77
2023/10/14 05:31:08;;;;;;;7.55;6.78;;;;;;;14.51;100.00;96097.06;6258848;22;19999;-77
2023/10/14 05:33:34;;;;;;;8.65;5.93;;;;;;;14.46;100.00;96105.47;6282967;22;19994;-77
2023/10/14 05:36:03;;;;;;;12.27;6.13;;;;;;;14.46;100.00;96107.25;6310288;22;20006;-77
2023/10/14 05:38:29;;;;;;;7.88;5.80;;;;;;;14.60;100.00;96105.88;6310124;22;19996;-78
2023/10/14 05:40:58;;;;;;;12.68;6.60;;;;;;;14.54;100.00;96104.69;6309164;22;20068;-78
2023/10/14 05:43:24;;;;;;;7.07;6.43;;;;;;;14.41;100.00;96128.09;6307482;22;20084;-77
2023/10/14 05:45:52;;;;;;;7.53;6.68;;;;;;;14.33;100.00;96144.75;6309677;22;20349;-77
2023/10/14 05:48:18;;;;;;;7.88;7.07;;;;;;;14.31;100.00;96147.56;6308306;22;20060;-77
2023/10/14 05:50:43;;;;;;;9.40;6.53;;;;;;;14.27;100.00;96162.13;6282652;22;20003;-77
2023/10/14 05:53:09;;;;;;;10.32;7.15;;;;;;;14.24;100.00;96161.59;6309580;22;19999;-77
2023/10/14 05:55:34;;;;;;;9.07;6.50;;;;;;;14.23;100.00;96171.31;6309945;22;19999;-78
2023/10/14 05:58:00;;;;;;;8.52;7.40;;;;;;;14.17;100.00;96174.59;6309403;22;19999;-78
2023/10/14 06:00:27;;;;;;;11.65;7.00;;;;;;;14.11;100.00;96183.97;6309187;22;20003;-78
2023/10/14 06:02:55;;;;;;;8.73;7.82;;;;;;;14.09;100.00;96195.72;6309909;22;20023;-77
2023/10/14 06:05:22;;;;;;;9.88;7.88;;;;;;;14.09;100.00;96214.25;6309121;22;20007;-77
2023/10/14 06:07:47;;;;;;;9.60;7.55;;;;;;;14.09;100.00;96230.13;6282513;22;19991;-77
2023/10/14 06:10:23;;;;;;;8.93;7.43;;;;;;;14.08;100.00;96250.47;6309167;22;20066;-78
2023/10/14 06:12:52;;;;;;;8.90;8.00;;;;;;;14.09;100.00;96269.84;6282567;22;19995;-78
2023/10/14 06:15:19;;;;;;;11.27;8.52;;;;;;;14.08;100.00;96286.72;6308988;22;20010;-79
2023/10/14 06:17:48;;;;;;;11.77;8.43;;;;;;;14.07;100.00;96315.00;6309283;22;20003;-78
2023/10/14 06:20:15;;;;;;;13.30;8.50;;;;;;;14.03;100.00;96317.09;6308745;22;20309;-78
2023/10/14 06:22:42;;;;;;;13.93;9.05;;;;;;;14.02;100.00;96314.59;6309629;22;19995;-79
2023/10/14 06:25:07;;;;;;;15.68;9.20;;;;;;;14.10;100.00;96321.81;6309372;22;20094;-78
2023/10/14 06:27:33;;;;;;;15.75;8.63;;;;;;;13.93;100.00;96326.09;6309516;22;20006;-78
2023/10/14 06:29:58;;;;;;;9.95;7.78;;;;;;;13.86;100.00;96333.78;6308439;22;20079;-78
2023/10/14 06:32:24;;;;;;;11.07;7.78;;;;;;;13.77;100.00;96330.19;6305306;22;20040;-78
2023/10/14 06:34:57;;;;;;;10.18;8.07;;;;;;;13.65;100.00;96337.50;6282063;22;20519;-78
2023/10/14 06:37:24;;;;;;;9.70;7.82;;;;;;;13.58;100.00;96331.09;6309213;22;20031;-78
2023/10/14 06:39:51;;;;;;;10.15;8.52;;;;;;;13.61;100.00;96314.97;6310013;22;19999;-79
2023/10/14 06:42:19;;;;;;;13.40;8.82;;;;;;;13.58;100.00;96331.94;6309165;22;20133;-79
2023/10/14 06:44:45;;;;;;;16.30;8.35;;;;;;;13.57;100.00;96324.13;6309377;22;20003;-79
2023/10/14 06:47:11;;;;;;;19.75;8.77;;;;;;;13.81;100.00;96320.13;6281949;22;20011;-78
2023/10/14 06:49:41;;;;;;;9.77;8.77;;;;;;;13.77;100.00;96318.75;6308722;22;20401;-78
2023/10/14 06:52:07;;;;;;;9.75;8.75;;;;;;;13.66;100.00;96336.50;6306443;22;20351;-79
2023/10/14 06:54:36;;;;;;;10.95;8.93;;;;;;;13.63;100.00;96335.97;6309211;22;20025;-80
2023/10/14 06:57:07;;;;;;;10.07;8.70;;;;;;;13.65;100.00;96340.13;6308296;22;19995;-78
2023/10/14 06:59:33;;;;;;;9.80;8.75;;;;;;;13.64;100.00;96333.19;6309342;22;20053;-79
2023/10/14 07:01:59;;;;;;;11.60;8.50;;;;;;;13.67;100.00;96337.34;6309787;22;20014;-79
2023/10/14 07:04:25;;;;;;;10.88;9.35;;;;;;;13.68;100.00;96331.91;6309587;22;20418;-80
2023/10/14 07:06:51;;;;;;;16.35;9.93;;;;;;;13.70;100.00;96324.66;6309841;22;20756;-79
2023/10/14 07:09:17;;;;;;;14.27;9.18;;;;;;;13.76;100.00;96333.81;6310631;22;20049;-78
2023/10/14 07:11:46;;;;;;;13.13;10.25;;;;;;;13.79;100.00;96330.03;6310140;22;19995;-81
2023/10/14 07:14:12;;;;;;;13.75;10.20;;;;;;;13.79;100.00;96330.88;6282152;22;19995;-79
2023/10/14 07:16:37;;;;;;;13.15;11.80;;;;;;;13.86;100.00;96339.06;6309361;22;19999;-80
2023/10/14 07:19:03;;;;;;;13.18;10.98;;;;;;;13.93;100.00;96331.38;6283541;22;20028;-84
2023/10/14 07:21:31;;;;;;;10.23;9.15;;;;;;;13.92;100.00;96332.34;6314170;22;20007;-79
2023/10/14 07:24:05;;;;;;;10.60;9.50;;;;;;;13.96;100.00;96329.25;6313070;22;20047;-80
2023/10/14 07:26:36;;;;;;;11.40;9.85;;;;;;;13.95;100.00;96340.84;6283091;22;19999;-79
2023/10/14 07:29:02;;;;;;;11.27;10.20;;;;;;;13.97;100.00;96338.06;6308756;22;19999;-76
2023/10/14 07:31:30;;;;;;;10.30;9.35;;;;;;;13.98;100.00;96332.59;6280567;22;19995;-76
2023/10/14 07:34:02;;;;;;;11.70;9.05;;;;;;;13.95;100.00;96324.94;6307915;22;20003;-76
2023/10/14 07:36:28;;;;;;;17.77;10.60;;;;;;;13.96;100.00;96328.44;6307239;22;20432;-76
2023/10/14 07:39:01;;;;;;;11.93;10.23;;;;;;;14.03;100.00;96319.75;6307924;22;20056;-76
2023/10/14 07:41:26;;;;;;;11.30;10.23;;;;;;;14.03;100.00;96314.44;6308400;22;20105;-76
2023/10/14 07:43:52;;;;;;;14.23;10.07;;;;;;;13.98;100.00;96300.81;6280303;22;20003;-76
2023/10/14 07:46:17;;;;;;;14.07;10.57;;;;;;;14.04;100.00;96294.97;6307503;22;20280;-75
2023/10/14 07:48:43;;;;;;;11.27;10.27;;;;;;;14.11;100.00;96294.34;6308999;22;20006;-76
2023/10/14 07:51:09;;;;;;;11.10;10.00;;;;;;;14.16;100.00;96294.72;6304736;22;20006;-76
2023/10/14 07:53:35;;;;;;;11.07;10.07;;;;;;;14.41;100.00;96287.03;6306582;22;20003;-76
2023/10/14 07:56:01;;;;;;;11.00;9.27;;;;;;;14.31;100.00;96287.94;6308582;22;19996;-76
2023/10/14 07:58:27;;;;;;;14.98;10.25;;;;;;;14.27;100.00;96291.88;6307955;22;20003;-77
2023/10/14 08:00:54;;;;;;;14.35;10.48;;;;;;;14.25;100.00;96283.22;6280394;22;20007;-76
2023/10/14 08:03:25;;;;;;;12.00;10.90;;;;;;;14.22;100.00;96288.00;6307660;22;20016;-77
2023/10/14 08:05:54;;;;;;;13.55;10.68;;;;;;;14.30;100.00;96290.72;6279942;22;20007;-78
2023/10/14 08:08:21;;;;;;;11.82;10.13;;;;;;;14.59;100.00;96287.03;6304205;22;20583;-75
2023/10/14 08:10:48;;;;;;;13.13;10.95;;;;;;;14.65;100.00;96290.88;6308462;22;19995;-80
2023/10/14 08:13:21;;;;;;;16.85;11.45;;;;;;;14.70;100.00;96288.59;6308167;22;20022;-79
2023/10/14 08:15:54;;;;;;;12.00;10.90;;;;;;;14.78;100.00;96304.63;6306657;22;20046;-83
2023/10/14 08:18:25;;;;;;;12.57;10.45;;;;;;;14.88;100.00;96291.28;6306775;22;20048;-80
2023/10/14 08:20:54;;;;;;;12.60;10.75;;;;;;;15.03;100.00;96294.19;6306557;22;20003;-80
2023/10/14 08:23:23;;;;;;;12.60;10.73;;;;;;;15.11;100.00;96304.03;6307727;22;19995;-79
2023/10/14 08:25:54;;;;;;;9.75;8.85;;;;;;;15.02;100.00;96303.94;6307846;22;20010;-82
2023/10/14 08:28:23;;;;;;;12.77;9.38;;;;;;;14.92;100.00;96307.69;6307898;22;20029;-78
2023/10/14 08:30:52;;;;;;;11.32;10.15;;;;;;;14.83;100.00;96307.63;6308646;22;20014;-79
2023/10/14 08:33:22;;;;;;;12.25;8.88;;;;;;;14.80;100.00;96305.28;6307376;22;20011;-79
2023/10/14 08:35:50;;;;;;;14.20;9.95;;;;;;;14.71;100.00;96309.69;6283298;22;20207;-79
2023/10/14 08:38:21;;;;;;;13.25;8.93;;;;;;;14.71;100.00;96301.72;6281175;22;20010;-79
2023/10/14 08:40:51;;;;;;;11.52;10.32;;;;;;;14.70;100.00;96299.19;6310032;22;20003;-79
2023/10/14 08:43:22;;;;;;;11.48;9.30;;;;;;;14.75;100.00;96294.31;6282667;22;19999;-80
2023/10/14 08:45:48;;;;;;;11.40;9.77;;;;;;;14.86;100.00;96302.00;6307353;22;19995;-79
2023/10/14 08:48:15;;;;;;;11.77;10.30;;;;;;;14.96;100.00;96282.56;6310083;22;20006;-80
2023/10/14 08:50:41;;;;;;;11.80;10.73;;;;;;;14.96;100.00;96287.84;6309991;22;19995;-80
2023/10/14 08:53:14;;;;;;;11.43;9.68;;;;;;;14.94;100.00;96276.56;6309955;22;20002;-80
2023/10/14 08:55:40;;;;;;;13.00;10.30;;;;;;;15.03;100.00;96278.28;6310162;22;20363;-80
2023/10/14 08:58:13;;;;;;;13.98;10.45;;;;;;;15.11;100.00;96278.31;6310793;22;20059;-80
2023/10/14 09:00:40;;;;;;;14.02;9.98;;;;;;;15.10;100.00;96279.31;6309612;22;20305;-81
2023/10/14 09:03:09;;;;;;;14.18;10.38;;;;;;;15.07;100.00;96286.75;6305396;22;20378;-80
2023/10/14 09:05:41;;;;;;;12.93;11.05;;;;;;;14.95;100.00;96286.19;6277418;22;20086;-80
2023/10/14 09:08:09;;;;;;;10.80;9.68;;;;;;;14.90;100.00;96291.94;6302053;22;20034;-80
2023/10/14 09:10:36;;;;;;;13.63;10.13;;;;;;;14.93;100.00;96282.88;6308953;22;20091;-82
2023/10/14 09:13:08;;;;;;;10.18;9.18;;;;;;;14.89;100.00;96290.28;6309516;22;20034;-82
2023/10/14 09:15:38;;;;;;;11.10;9.90;;;;;;;14.94;100.00;96293.28;6309235;22;20349;-81
2023/10/14 09:18:13;;;;;;;14.73;11.40;;;;;;;14.96;100.00;96298.47;6308460;22;20405;-82
2023/10/14 09:20:40;;;;;;;15.38;11.48;;;;;;;14.97;100.00;96300.13;6309152;22;20238;-83
2023/10/14 09:23:14;;;;;;;11.35;10.15;;;;;;;15.04;100.00;96303.81;6309789;22;20003;-83
2023/10/14 09:25:45;;;;;;;15.37;10.97;;;;;;;15.15;100.00;96303.56;6310227;22;20307;-84
2023/10/14 09:28:12;;;;;;;11.80;10.55;;;;;;;15.10;100.00;96305.81;6310082;22;20217;-85
2023/10/14 09:30:44;;;;;;;12.38;10.32;;;;;;;15.12;100.00;96306.50;6310176;22;19991;-83
2023/10/14 09:33:10;;;;;;;13.95;10.82;;;;;;;15.07;100.00;96300.84;6309961;22;20023;-83
2023/10/14 09:35:35;;;;;;;12.85;10.95;;;;;;;15.10;100.00;96305.81;6308098;22;20006;-85
2023/10/14 09:38:04;;;;;;;12.40;10.43;;;;;;;15.16;100.00;96305.22;6310545;22;20007;-88
2023/10/14 09:40:29;;;;;;;13.98;10.27;;;;;;;15.22;100.00;96308.25;6309309;22;20018;-84
2023/10/14 09:42:56;;;;;;;14.85;10.70;;;;;;;15.30;100.00;96310.94;6308961;22;20316;-85
2023/10/14 09:45:23;;;;;;;11.20;9.88;;;;;;;15.33;100.00;96307.97;6308962;22;20003;-84
2023/10/14 09:47:52;;;;;;;11.10;10.00;;;;;;;15.40;100.00;96302.88;6309735;22;20049;-84
2023/10/14 09:50:21;;;;;;;16.27;10.23;;;;;;;15.45;100.00;96311.19;6309598;22;20392;-82
2023/10/14 09:52:52;;;;;;;12.70;10.23;;;;;;;15.42;100.00;96304.38;6307892;22;20404;-81
2023/10/14 09:55:21;;;;;;;19.23;10.43;;;;;;;15.42;100.00;96304.38;6308171;22;20017;-78
2023/10/14 09:57:47;;;;;;;13.02;11.57;;;;;;;15.40;100.00;96301.06;6281742;22;19995;-80
2023/10/14 10:00:16;;;;;;;12.20;10.88;;;;;;;15.44;100.00;96305.06;6281555;22;20424;-80
2023/10/14 10:02:45;;;;;;;12.52;10.40;;;;;;;15.61;100.00;96303.31;6309951;22;19995;-78
2023/10/14 10:05:17;;;;;;;12.23;11.02;;;;;;;15.61;100.00;96307.81;6309420;22;20010;-79
2023/10/14 10:07:53;;;;;;;13.02;9.82;;;;;;;15.63;100.00;96302.31;6310372;22;19999;-80
2023/10/14 10:10:25;;;;;;;11.75;10.55;;;;;;;15.99;100.00;96305.66;6309325;22;19995;-79
2023/10/14 10:12:55;;;;;;;14.23;9.77;;;;;;;16.02;100.00;96299.19;6282952;22;20007;-78
2023/10/14 10:15:24;;;;;;;16.17;10.55;;;;;;;15.82;100.00;96303.91;6309716;22;20005;-78
2023/10/14 10:17:56;;;;;;;14.18;11.02;;;;;;;15.64;100.00;96290.72;6310256;22;20014;-78
2023/10/14 10:20:31;;;;;;;13.43;10.52;;;;;;;15.73;100.00;96300.38;6308942;22;20014;-78
2023/10/14 10:22:58;;;;;;;10.40;9.40;;;;;;;15.80;100.00;96295.25;6310222;22;19999;-79
2023/10/14 10:25:47;;;;;;;11.70;10.50;;;;;;;15.79;100.00;96293.59;6310071;22;19999;-77
2023/10/14 10:28:27;;;;;;;12.38;10.90;;;;;;;15.90;100.00;96298.66;6308949;22;20067;-79
2023/10/14 10:31:23;;;;;;;13.93;10.25;;;;;;;15.80;100.00;96300.56;6283909;22;20416;-78
2023/10/14 10:33:55;;;;;;;12.88;9.18;;;;;;;15.82;100.00;96301.25;6306878;22;20436;-79
2023/10/14 10:36:30;;;;;;;11.65;10.45;;;;;;;15.58;100.00;96302.78;6310801;22;19999;-79
2023/10/14 10:39:07;;;;;;;12.65;10.60;;;;;;;15.45;100.00;96308.53;6312061;22;20007;-78
2023/10/14 10:41:37;;;;;;;11.32;10.23;;;;;;;15.44;100.00;96309.50;6279894;22;20045;-78
2023/10/14 10:44:05;;;;;;;12.25;9.82;;;;;;;15.47;100.00;96307.38;6283483;22;20029;-82
2023/10/14 10:46:47;;;;;;;11.05;9.77;;;;;;;15.51;100.00;96296.47;6311114;22;20039;-83
2023/10/14 10:49:16;;;;;;;10.13;8.95;;;;;;;15.52;100.00;96298.97;6284973;22;20309;-80
2023/10/14 10:51:52;;;;;;;11.60;10.40;;;;;;;15.56;100.00;96299.47;6309596;22;19991;-80
2023/10/14 10:54:22;;;;;;;11.02;9.88;;;;;;;15.66;100.00;96294.03;6310804;22;20003;-79
2023/10/14 10:56:47;;;;;;;13.07;10.23;;;;;;;15.67;100.00;96307.16;6308232;22;20003;-79
2023/10/14 10:59:14;;;;;;;15.55;12.02;;;;;;;15.61;100.00;96299.84;6311488;22;20071;-81
2023/10/14 11:01:40;;;;;;;14.93;12.48;;;;;;;15.54;100.00;96309.41;6311644;22;20297;-80
2023/10/14 11:04:08;;;;;;;14.00;12.77;;;;;;;15.39;100.00;96302.06;6311420;22;20015;-80
2023/10/14 11:06:35;;;;;;;14.65;13.13;;;;;;;15.27;100.00;96303.28;6310965;22;20053;-78
2023/10/14 11:09:01;;;;;;;17.67;13.07;;;;;;;15.22;100.00;96308.25;6283422;22;20010;-80
2023/10/14 11:11:30;;;;;;;13.73;12.45;;;;;;;15.18;100.00;96318.31;6308672;22;19994;-78
2023/10/14 11:13:56;;;;;;;16.73;12.73;;;;;;;15.14;100.00;96317.81;6284013;22;20003;-79
2023/10/14 11:16:22;;;;;;;14.52;13.23;;;;;;;15.07;100.00;96305.31;6310726;22;20443;-79
2023/10/14 11:18:48;;;;;;;16.50;13.68;;;;;;;15.02;100.00;96308.44;6310613;22;20007;-79
2023/10/14 11:21:16;;;;;;;14.63;12.35;;;;;;;15.05;100.00;96302.81;6310939;22;20003;-79
2023/10/14 11:23:42;;;;;;;14.57;13.07;;;;;;;15.13;100.00;96302.03;6284779;22;20009;-78
2023/10/14 11:26:12;;;;;;;17.08;15.40;;;;;;;15.22;100.00;96301.09;6312433;22;19999;-77
2023/10/14 11:28:45;;;;;;;12.60;11.45;;;;;;;15.28;100.00;96294.34;6311543;22;20013;-78
2023/10/14 11:31:14;;;;;;;14.18;12.55;;;;;;;15.44;100.00;96283.84;6311022;22;20417;-79
2023/10/14 11:33:44;;;;;;;14.05;11.82;;;;;;;15.31;100.00;96286.06;6284141;22;20074;-77
2023/10/14 11:36:17;;;;;;;17.38;12.32;;;;;;;15.30;100.00;96276.44;6285634;22;19995;-77
2023/10/14 11:38:44;;;;;;;13.93;12.40;;;;;;;15.42;100.00;96284.97;6311327;22;20033;-77
2023/10/14 11:41:12;;;;;;;14.40;12.13;;;;;;;15.47;100.00;96275.56;6310684;22;20009;-78
2023/10/14 11:43:42;;;;;;;14.68;12.38;;;;;;;15.44;100.00;96275.03;6310718;22;20309;-77
2023/10/14 11:46:08;;;;;;;13.27;11.88;;;;;;;15.44;100.00;96270.56;6311151;22;20064;-77
2023/10/14 11:48:33;;;;;;;13.10;11.77;;;;;;;15.51;100.00;96267.28;6311309;22;19999;-77
2023/10/14 11:51:01;;;;;;;16.77;11.65;;;;;;;15.58;100.00;96276.25;6308202;22;20002;-79
2023/10/14 11:53:28;;;;;;;14.07;10.98;;;;;;;15.65;100.00;96282.59;6283567;22;20060;-79
2023/10/14 11:56:00;;;;;;;13.35;11.43;;;;;;;15.72;100.00;96283.63;6308702;22;20010;-79
2023/10/14 11:58:33;;;;;;;13.80;11.75;;;;;;;15.82;100.00;96278.19;6307277;22;19999;-79
2023/10/14 12:00:59;;;;;;;13.30;11.95;;;;;;;15.88;100.00;96288.19;6279350;22;20003;-80
2023/10/14 12:03:26;;;;;;;14.40;11.50;;;;;;;15.96;100.00;96283.91;6307124;22;20073;-79
2023/10/14 12:05:59;;;;;;;13.57;12.18;;;;;;;15.95;100.00;96283.06;6279559;22;20015;-79